createdAt,value
2019-04-26T00:00:40.517Z,79.6
2019-04-26T00:01:47.457Z,79
2019-04-26T00:02:55.247Z,89.7
2019-04-26T00:04:02.457Z,91.6
2019-04-26T00:05:10.240Z,85.2
2019-04-26T00:06:20.113Z,91.2
2019-04-26T00:07:27.322Z,93.2
2019-04-26T00:08:34.532Z,95.1
2019-04-26T00:09:42.211Z,95.5
2019-04-26T00:10:49.426Z,91.4
2019-04-26T00:11:57.299Z,96.3
2019-04-26T00:13:04.516Z,95.4
2019-04-26T00:14:12.447Z,90.9
2019-04-26T00:15:20.500Z,94
2019-04-26T00:16:29.595Z,95
2019-04-26T00:17:36.815Z,96.6
2019-04-26T00:18:44.984Z,99.9
2019-04-26T00:19:52.204Z,99.9
2019-04-26T00:21:00.457Z,99.9
2019-04-26T00:22:07.664Z,99.9
2019-04-26T00:23:16.572Z,99.9
2019-04-26T00:24:24.990Z,99.9
2019-04-26T00:25:35.126Z,99.9
2019-04-26T00:26:42.357Z,99.9
2019-04-26T00:27:49.581Z,99.9
2019-04-26T00:28:56.531Z,99.9
2019-04-26T00:30:03.480Z,99.9
2019-04-26T00:31:11.382Z,99.9
2019-04-26T00:32:19.556Z,99.9
2019-04-26T00:33:27.693Z,99.9
2019-04-26T00:34:34.934Z,99.9
2019-04-26T00:35:47.552Z,99.9
2019-04-26T00:36:55.066Z,99.9
2019-04-26T00:38:02.284Z,99.9
2019-04-26T00:39:09.492Z,99.9
2019-04-26T00:40:18.562Z,99.9
2019-04-26T00:41:26.678Z,99.9
2019-04-26T00:42:33.876Z,99.9
2019-04-26T00:43:41.101Z,99.9
2019-04-26T00:44:48.028Z,99.9
2019-04-26T00:45:55.249Z,99.9
2019-04-26T00:47:02.459Z,99.9
2019-04-26T00:48:09.422Z,99.9
2019-04-26T00:49:17.075Z,99.9
2019-04-26T00:50:25.450Z,99.9
2019-04-26T00:51:32.660Z,99.9
2019-04-26T00:52:39.980Z,99.9
2019-04-26T00:53:47.452Z,99.9
2019-04-26T00:54:54.658Z,99.9
2019-04-26T00:56:01.877Z,99.9
2019-04-26T00:57:08.809Z,99.9
2019-04-26T00:58:16.357Z,99.9
2019-04-26T00:59:26.627Z,99.9
2019-04-26T01:00:33.586Z,99.9
2019-04-26T01:01:40.534Z,99.9
2019-04-26T01:02:47.742Z,99.9
2019-04-26T01:03:54.971Z,99.9
2019-04-26T01:05:02.201Z,99.9
2019-04-26T01:06:09.404Z,99.9
2019-04-26T01:07:16.945Z,99.9
2019-04-26T01:08:25.487Z,99.9
2019-04-26T01:09:32.724Z,99.9
2019-04-26T01:10:39.664Z,99.9
2019-04-26T01:11:46.866Z,99.9
2019-04-26T01:12:54.123Z,99.9
2019-04-26T01:14:01.337Z,99.9
2019-04-26T01:15:08.563Z,99.9
2019-04-26T01:16:15.846Z,99.9
2019-04-26T01:17:26.802Z,99.9
2019-04-26T01:18:34.061Z,99.9
2019-04-26T01:19:40.988Z,99.9
2019-04-26T01:20:48.203Z,99.9
2019-04-26T01:21:55.411Z,99.9
2019-04-26T01:23:02.336Z,99.9
2019-04-26T01:24:09.546Z,99.9
2019-04-26T01:25:17.561Z,99.9
2019-04-26T01:26:25.601Z,99.9
2019-04-26T01:27:33.642Z,99.9
2019-04-26T01:28:40.864Z,99.9
2019-04-26T01:29:47.814Z,99.9
2019-04-26T01:30:54.749Z,99.9
2019-04-26T01:32:01.968Z,99.9
2019-04-26T01:33:09.179Z,99.9
2019-04-26T01:34:16.121Z,99.9
2019-04-26T01:35:26.280Z,99.9
2019-04-26T01:36:34.632Z,99.9
2019-04-26T01:37:41.841Z,99.9
2019-04-26T01:38:48.780Z,99.9
2019-04-26T01:39:56.005Z,99.9
2019-04-26T01:41:02.947Z,99.9
2019-04-26T01:42:10.163Z,99.9
2019-04-26T01:43:17.374Z,99.9
2019-04-26T01:44:24.597Z,99.9
2019-04-26T01:45:32.838Z,99.9
2019-04-26T01:46:39.773Z,99.9
2019-04-26T01:47:46.986Z,99.9
2019-04-26T01:48:54.213Z,99.9
2019-04-26T01:50:01.440Z,99.9
2019-04-26T01:51:08.378Z,99.9
2019-04-26T01:52:15.597Z,99.9
2019-04-26T01:53:22.810Z,99.9
2019-04-26T01:54:31.861Z,99.9
2019-04-26T01:55:39.120Z,99.9
2019-04-26T01:56:46.330Z,99.9
2019-04-26T01:57:52.997Z,99.9
2019-04-26T01:58:59.932Z,99.9
2019-04-26T02:00:07.157Z,99.9
2019-04-26T02:01:14.105Z,99.9
2019-04-26T02:02:22.350Z,99.9
2019-04-26T02:03:31.830Z,99.9
2019-04-26T02:04:38.837Z,99.9
2019-04-26T02:05:46.045Z,99.9
2019-04-26T02:06:53.265Z,99.9
2019-04-26T02:08:00.201Z,99.9
2019-04-26T02:09:07.409Z,99.9
2019-04-26T02:10:14.071Z,99.9
2019-04-26T02:11:21.285Z,99.9
2019-04-26T02:12:33.084Z,99.9
2019-04-26T02:13:40.327Z,99.9
2019-04-26T02:14:47.542Z,99.9
2019-04-26T02:15:54.477Z,99.9
2019-04-26T02:17:01.417Z,99.9
2019-04-26T02:18:08.623Z,99.9
2019-04-26T02:19:15.832Z,99.9
2019-04-26T02:20:23.229Z,99.9
2019-04-26T02:21:34.195Z,99.9
2019-04-26T02:22:41.474Z,99.9
2019-04-26T02:23:48.683Z,99.9
2019-04-26T02:24:55.646Z,99.9
2019-04-26T02:26:02.588Z,99.9
2019-04-26T02:27:09.807Z,99.9
2019-04-26T02:28:16.476Z,99.9
2019-04-26T02:29:25.045Z,99.9
2019-04-26T02:30:36.700Z,99.9
2019-04-26T02:31:43.979Z,99.9
2019-04-26T02:32:50.910Z,99.9
2019-04-26T02:33:58.121Z,99.9
2019-04-26T02:35:05.318Z,99.9
2019-04-26T02:36:12.561Z,99.9
2019-04-26T02:37:19.776Z,99.9
2019-04-26T02:38:27.780Z,99.9
2019-04-26T02:39:42.479Z,99.9
2019-04-26T02:40:49.683Z,99.9
2019-04-26T02:41:56.891Z,99.9
2019-04-26T02:43:04.103Z,99.9
2019-04-26T02:44:11.319Z,99.9
2019-04-26T02:45:17.974Z,99.9
2019-04-26T02:46:28.360Z,99.9
2019-04-26T02:47:42.292Z,99.9
2019-04-26T02:48:49.230Z,99.9
2019-04-26T02:49:56.448Z,99.9
2019-04-26T02:51:03.388Z,99.9
2019-04-26T02:52:10.600Z,99.9
2019-04-26T02:53:17.807Z,99.9
2019-04-26T02:54:25.038Z,99.9
2019-04-26T02:55:38.375Z,99.9
2019-04-26T02:56:49.518Z,99.9
2019-04-26T02:57:56.798Z,99.9
2019-04-26T02:59:04.027Z,99.9
2019-04-26T03:00:11.240Z,99.9
2019-04-26T03:01:18.440Z,99.9
2019-04-26T03:02:25.384Z,99.9
2019-04-26T03:03:37.662Z,99.9
2019-04-26T03:04:46.554Z,99.9
2019-04-26T03:05:53.780Z,99.9
2019-04-26T03:07:03.251Z,99.9
2019-04-26T03:08:11.006Z,99.9
2019-04-26T03:09:18.217Z,99.9
2019-04-26T03:10:25.430Z,99.9
2019-04-26T03:11:33.769Z,99.9
2019-04-26T03:12:45.363Z,99.9
2019-04-26T03:13:52.570Z,99.9
2019-04-26T03:15:13.023Z,99.9
2019-04-26T03:16:21.370Z,99.9
2019-04-26T03:17:28.575Z,99.9
2019-04-26T03:18:42.962Z,99.9
2019-04-26T03:19:50.303Z,99.9
2019-04-26T03:20:57.241Z,99.9
2019-04-26T03:22:04.452Z,99.9
2019-04-26T03:23:11.689Z,99.9
2019-04-26T03:24:18.913Z,99.9
2019-04-26T03:25:26.119Z,99.9
2019-04-26T03:26:35.142Z,99.9
2019-04-26T03:27:49.190Z,99.9
2019-04-26T03:28:56.399Z,99.9
2019-04-26T03:30:18.138Z,99.9
2019-04-26T03:31:33.723Z,99.9
2019-04-26T03:33:01.839Z,99.9
2019-04-26T03:34:09.765Z,99.9
2019-04-26T03:35:18.174Z,99.9
2019-04-26T03:36:25.396Z,99.9
2019-04-26T03:37:34.404Z,99.9
2019-04-26T03:38:50.180Z,99.9
2019-04-26T03:39:57.391Z,99.9
2019-04-26T03:41:04.603Z,99.9
2019-04-26T03:42:11.557Z,99.9
2019-04-26T03:43:18.480Z,99.9
2019-04-26T03:44:25.781Z,99.9
2019-04-26T03:45:32.982Z,99.9
2019-04-26T03:46:47.916Z,99.9
2019-04-26T03:47:54.855Z,99.9
2019-04-26T03:49:02.084Z,99.9
2019-04-26T03:50:09.299Z,99.9
2019-04-26T03:51:16.497Z,99.9
2019-04-26T03:52:23.715Z,99.9
2019-04-26T03:53:30.935Z,99.9
2019-04-26T03:54:39.672Z,99.9
2019-04-26T03:55:50.438Z,99.9
2019-04-26T03:56:57.645Z,99.9
2019-04-26T03:58:04.849Z,99.9
2019-04-26T03:59:12.059Z,99.9
2019-04-26T04:00:19.418Z,99.9
2019-04-26T04:01:26.628Z,99.9
2019-04-26T04:02:36.584Z,99.9
2019-04-26T04:03:50.808Z,99.9
2019-04-26T04:04:58.020Z,99.9
2019-04-26T04:06:05.281Z,99.9
2019-04-26T04:07:12.498Z,99.9
2019-04-26T04:08:19.708Z,99.9
2019-04-26T04:09:26.928Z,99.9
2019-04-26T04:10:33.862Z,99.9
2019-04-26T04:11:47.030Z,99.9
2019-04-26T04:12:56.708Z,99.9
2019-04-26T04:14:04.037Z,99.9
2019-04-26T04:15:11.667Z,99.9
2019-04-26T04:16:18.874Z,99.9
2019-04-26T04:17:26.083Z,99.9
2019-04-26T04:18:33.288Z,99.9
2019-04-26T04:19:42.081Z,99.9
2019-04-26T04:20:53.330Z,99.9
2019-04-26T04:22:00.556Z,99.9
2019-04-26T04:23:07.500Z,99.9
2019-04-26T04:24:14.718Z,99.9
2019-04-26T04:25:21.918Z,99.9
2019-04-26T04:26:29.130Z,99.9
2019-04-26T04:27:36.340Z,99.9
2019-04-26T04:28:50.669Z,99.9
2019-04-26T04:29:57.615Z,99.9
2019-04-26T04:31:04.835Z,99.9
2019-04-26T04:32:12.053Z,99.9
2019-04-26T04:33:19.258Z,99.9
2019-04-26T04:34:26.465Z,99.9
2019-04-26T04:35:33.674Z,99.9
2019-04-26T04:36:42.079Z,99.9
2019-04-26T04:38:08.300Z,99.9
2019-04-26T04:39:16.653Z,99.9
2019-04-26T04:40:23.863Z,99.9
2019-04-26T04:41:31.075Z,99.9
2019-04-26T04:42:38.414Z,99.9
2019-04-26T04:43:49.162Z,99.9
2019-04-26T04:44:59.464Z,99.9
2019-04-26T04:46:06.821Z,99.9
2019-04-26T04:47:23.330Z,99.9
2019-04-26T04:48:37.539Z,99.9
2019-04-26T04:49:46.145Z,99.9
2019-04-26T04:50:59.073Z,99.9
2019-04-26T04:52:06.268Z,99.9
2019-04-26T04:53:13.200Z,99.9
2019-04-26T04:54:20.413Z,99.9
2019-04-26T04:55:27.730Z,99.9
2019-04-26T04:56:34.932Z,99.9
2019-04-26T04:57:42.148Z,99.9
2019-04-26T04:58:52.422Z,99.9
2019-04-26T04:59:59.776Z,99.9
2019-04-26T05:01:06.986Z,99.9
2019-04-26T05:02:13.928Z,99.9
2019-04-26T05:03:21.144Z,99.9
2019-04-26T05:04:28.346Z,99.9
2019-04-26T05:05:35.282Z,99.9
2019-04-26T05:06:42.697Z,99.9
2019-04-26T05:07:51.467Z,99.9
2019-04-26T05:09:13.011Z,99.9
2019-04-26T05:10:19.989Z,99.9
2019-04-26T05:11:26.943Z,99.9
2019-04-26T05:12:34.155Z,99.9
2019-04-26T05:13:41.088Z,99.9
2019-04-26T05:14:50.619Z,99.9
2019-04-26T05:16:00.038Z,99.9
2019-04-26T05:17:07.245Z,99.9
2019-04-26T05:18:14.183Z,99.9
2019-04-26T05:19:21.125Z,99.9
2019-04-26T05:20:28.334Z,99.9
2019-04-26T05:22:41.902Z,99.9
2019-04-26T05:23:49.108Z,99.9
2019-04-26T05:24:56.862Z,99.9
2019-04-26T05:26:04.069Z,99.9
2019-04-26T05:27:11.276Z,99.9
2019-04-26T05:28:18.483Z,99.9
2019-04-26T05:29:25.415Z,99.9
2019-04-26T05:30:32.623Z,99.9
2019-04-26T05:31:39.834Z,99.9
2019-04-26T05:32:47.232Z,99.9
2019-04-26T05:33:56.858Z,99.9
2019-04-26T05:36:10.999Z,99.9
2019-04-26T05:37:18.214Z,99.9
2019-04-26T05:38:25.433Z,99.9
2019-04-26T05:39:32.631Z,99.9
2019-04-26T05:40:39.841Z,99.9
2019-04-26T05:41:48.102Z,99.9
2019-04-26T05:42:57.992Z,99.9
2019-04-26T05:44:05.227Z,99.9
2019-04-26T05:45:12.443Z,99.9
2019-04-26T05:46:19.382Z,99.9
2019-04-26T05:47:26.311Z,99.9
2019-04-26T05:48:33.242Z,99.9
2019-04-26T05:49:40.457Z,99.9
2019-04-26T05:50:47.405Z,99.9
2019-04-26T05:51:57.801Z,99.9
2019-04-26T05:53:05.049Z,99.9
2019-04-26T05:54:12.269Z,99.9
2019-04-26T05:55:19.476Z,99.9
2019-04-26T05:56:26.693Z,99.9
2019-04-26T05:57:33.620Z,99.9
2019-04-26T05:58:40.835Z,99.9
2019-04-26T05:59:47.758Z,99.9
2019-04-26T06:00:56.455Z,99.9
2019-04-26T06:02:04.358Z,99.9
2019-04-26T06:03:11.298Z,99.9
2019-04-26T06:04:18.233Z,99.9
2019-04-26T06:05:25.172Z,99.9
2019-04-26T06:06:32.383Z,99.9
2019-04-26T06:07:39.309Z,99.9
2019-04-26T06:08:46.527Z,99.9
2019-04-26T06:09:54.434Z,99.9
2019-04-26T06:11:02.764Z,99.9
2019-04-26T06:12:12.378Z,99.9
2019-04-26T06:13:19.697Z,99.9
2019-04-26T06:14:26.631Z,99.9
2019-04-26T06:15:33.556Z,99.9
2019-04-26T06:16:40.760Z,99.9
2019-04-26T06:17:47.692Z,99.9
2019-04-26T06:18:55.159Z,99.9
2019-04-26T06:20:03.552Z,99.9
2019-04-26T06:21:10.780Z,99.9
2019-04-26T06:22:17.988Z,99.9
2019-04-26T06:23:25.199Z,99.9
2019-04-26T06:24:32.415Z,99.9
2019-04-26T06:25:39.357Z,99.9
2019-04-26T06:26:46.590Z,99.9
2019-04-26T06:27:54.543Z,99.9
2019-04-26T06:29:05.285Z,99.9
2019-04-26T06:30:12.264Z,99.9
2019-04-26T06:31:19.473Z,99.9
2019-04-26T06:32:26.476Z,99.9
2019-04-26T06:33:33.365Z,99.9
2019-04-26T06:34:40.619Z,99.9
2019-04-26T06:35:47.875Z,99.9
2019-04-26T06:36:56.064Z,99.9
2019-04-26T06:38:05.499Z,99.9
2019-04-26T06:39:12.450Z,99.9
2019-04-26T06:40:19.719Z,99.9
2019-04-26T06:41:26.931Z,99.9
2019-04-26T06:42:34.148Z,99.9
2019-04-26T06:43:41.087Z,99.9
2019-04-26T06:44:48.305Z,99.9
2019-04-26T06:45:56.622Z,99.9
2019-04-26T06:47:06.675Z,99.9
2019-04-26T06:48:13.945Z,99.9
2019-04-26T06:49:21.152Z,99.9
2019-04-26T06:50:28.395Z,99.9
2019-04-26T06:51:35.611Z,99.9
2019-04-26T06:52:42.822Z,99.9
2019-04-26T06:53:49.760Z,99.9
2019-04-26T06:54:57.771Z,99.9
2019-04-26T06:56:06.017Z,99.9
2019-04-26T06:57:15.345Z,99.9
2019-04-26T06:58:22.313Z,99.9
2019-04-26T06:59:35.989Z,99.9
2019-04-26T07:00:43.732Z,99.9
2019-04-26T07:01:50.667Z,99.9
2019-04-26T07:02:58.893Z,99.9
2019-04-26T07:04:07.318Z,99.9
2019-04-26T07:05:15.718Z,99.9
2019-04-26T07:06:34.469Z,99.9
2019-04-26T07:07:42.233Z,99.9
2019-04-26T07:08:56.982Z,99.9
2019-04-26T07:10:09.864Z,99.9
2019-04-26T07:11:17.079Z,99.9
2019-04-26T07:12:24.301Z,99.9
2019-04-26T07:13:31.512Z,99.9
2019-04-26T07:14:38.727Z,99.9
2019-04-26T07:15:45.936Z,99.9
2019-04-26T07:16:53.144Z,99.9
2019-04-26T07:18:00.896Z,99.9
2019-04-26T22:00:05.809Z,99.9
2019-04-26T22:01:15.505Z,99.9
2019-04-26T22:02:29.527Z,99.9
2019-04-26T22:03:45.263Z,99.9
2019-04-26T22:05:07.937Z,99.9
2019-04-26T22:06:24.958Z,99.9
2019-04-26T22:07:39.386Z,99.9
2019-04-26T22:08:58.664Z,99.9
2019-04-26T22:10:11.372Z,99.9
2019-04-26T22:11:20.936Z,99.9
2019-04-26T22:12:31.180Z,99.9
2019-04-26T22:13:41.446Z,99.9
2019-04-26T22:14:55.644Z,99.9
2019-04-26T22:16:29.160Z,99.9
2019-04-26T22:17:56.095Z,99.9
2019-04-26T22:19:03.811Z,99.9
2019-04-26T22:20:14.368Z,99.9
2019-04-26T22:21:28.527Z,99.9
2019-04-26T22:22:37.449Z,99.9
2019-04-26T22:23:51.671Z,99.9
2019-04-26T22:25:01.475Z,99.9
2019-04-26T22:26:10.493Z,99.9
2019-04-26T22:27:25.252Z,99.9
2019-04-26T22:28:35.899Z,99.9
2019-04-26T22:29:47.499Z,99.9
2019-04-26T22:31:04.570Z,99.9
2019-04-26T22:32:18.093Z,99.9
2019-04-26T22:33:27.327Z,99.9
2019-04-26T22:34:41.299Z,99.9
2019-04-26T22:35:55.160Z,99.9
2019-04-26T22:38:36.696Z,99.9
2019-04-26T22:39:44.321Z,99.9
2019-04-26T22:40:53.160Z,99.9
2019-04-26T22:42:03.711Z,99.9
2019-04-26T22:43:15.439Z,99.9
2019-04-26T22:44:31.142Z,99.9
2019-04-26T22:45:44.038Z,99.9
2019-04-26T22:46:53.975Z,99.9
2019-04-26T22:48:11.471Z,99.9
2019-04-26T22:49:34.869Z,99.9
2019-04-26T22:50:58.268Z,99.9
2019-04-26T22:52:10.628Z,99.9
2019-04-26T22:53:25.711Z,99.9
2019-04-26T22:54:37.622Z,99.9
2019-04-26T22:55:53.556Z,99.9
2019-04-26T22:57:12.974Z,99.9
2019-04-26T22:58:25.356Z,99.9
2019-04-26T22:59:38.056Z,99.9
2019-04-26T23:01:03.256Z,99.9
2019-04-26T23:02:13.658Z,99.9
2019-04-26T23:03:36.501Z,99.9
2019-04-26T23:04:55.846Z,99.9
2019-04-26T23:06:12.857Z,99.9
2019-04-26T23:07:23.156Z,99.9
2019-04-26T23:08:35.133Z,99.9
2019-04-26T23:09:51.654Z,99.9
2019-04-26T23:11:02.357Z,99.9
2019-04-26T23:12:22.564Z,99.9
2019-04-26T23:13:37.723Z,99.9
2019-04-26T23:14:52.026Z,99.9
2019-04-26T23:16:05.910Z,99.9
2019-04-26T23:17:17.956Z,99.9
2019-04-26T23:18:25.164Z,99.9
2019-04-26T23:19:33.407Z,99.9
2019-04-26T23:20:40.688Z,99.9
2019-04-26T23:21:52.774Z,99.9
2019-04-26T23:23:05.077Z,99.9
2019-04-26T23:24:17.639Z,99.9
2019-04-26T23:25:27.680Z,99.9
2019-04-26T23:26:41.558Z,99.9
2019-04-26T23:27:54.998Z,99.9
2019-04-26T23:29:08.113Z,99.9
2019-04-26T23:30:27.621Z,99.9
2019-04-26T23:31:41.580Z,99.9
2019-04-26T23:32:52.178Z,99.9
2019-04-26T23:34:00.044Z,99.9
2019-04-26T23:35:09.226Z,99.9
2019-04-26T23:36:18.255Z,99.9
2019-04-26T23:37:27.681Z,99.9
2019-04-26T23:38:37.281Z,99.9
2019-04-26T23:39:49.405Z,99.9
2019-04-26T23:41:01.072Z,99.9
2019-04-26T23:42:16.365Z,99.9
2019-04-26T23:43:25.586Z,99.9
2019-04-26T23:44:33.135Z,99.9
2019-04-26T23:45:48.147Z,99.9
2019-04-26T23:47:01.086Z,99.9
2019-04-26T23:48:28.967Z,99.9
2019-04-26T23:49:36.174Z,99.9
2019-04-26T23:50:43.380Z,99.9
2019-04-26T23:51:50.578Z,99.9
2019-04-26T23:52:59.566Z,99.9
2019-04-26T23:54:06.773Z,99.9
2019-04-26T23:55:13.984Z,99.9
2019-04-26T23:56:23.460Z,99.9
2019-04-26T23:57:34.763Z,99.9
2019-04-26T23:58:44.029Z,99.9
2019-04-26T23:59:56.267Z,99.9
